createdAt,value
2023-01-30T00:01:30.504Z,-4.49
2023-01-30T00:05:07.205Z,-4.52
2023-01-30T00:08:38.690Z,-4.58
2023-01-30T00:12:04.305Z,-4.71
2023-01-30T00:15:22.245Z,-4.84
2023-01-30T00:18:55.996Z,-4.88
2023-01-30T00:22:44.093Z,-4.96
2023-01-30T00:26:23.876Z,-5.07
2023-01-30T00:30:03.587Z,-5.12
2023-01-30T00:33:21.286Z,-5.10
2023-01-30T00:36:39.385Z,-4.99
2023-01-30T00:40:25.157Z,-4.88
2023-01-30T00:44:01.634Z,-4.79
2023-01-30T00:47:41.590Z,-4.77
2023-01-30T00:51:19.366Z,-4.74
2023-01-30T00:54:46.087Z,-4.77
2023-01-30T00:58:24.816Z,-4.78
2023-01-30T01:01:48.098Z,-4.77
2023-01-30T01:05:33.113Z,-4.76
2023-01-30T01:08:55.213Z,-4.81
2023-01-30T01:12:13.739Z,-4.85
2023-01-30T01:15:52.223Z,-4.86
2023-01-30T01:19:14.089Z,-4.89
2023-01-30T01:22:31.402Z,-4.89
2023-01-30T01:26:06.399Z,-4.92
2023-01-30T01:29:40.104Z,-4.85
2023-01-30T01:32:58.820Z,-4.90
2023-01-30T01:36:52.699Z,-4.82
2023-01-30T01:40:12.974Z,-4.81
2023-01-30T01:44:20.325Z,-4.82
2023-01-30T01:48:03.832Z,-4.74
2023-01-30T01:51:55.231Z,-4.66
2023-01-30T01:55:14.026Z,-4.76
2023-01-30T01:58:41.254Z,-4.73
2023-01-30T02:05:53.282Z,-4.75
2023-01-30T02:09:11.827Z,-4.78
2023-01-30T02:12:31.540Z,-4.80
2023-01-30T02:15:57.302Z,-4.80
2023-01-30T02:19:49.697Z,-4.78
2023-01-30T02:23:56.786Z,-4.84
2023-01-30T02:27:17.924Z,-4.82
2023-01-30T02:31:14.035Z,-4.82
2023-01-30T02:34:49.689Z,-4.88
2023-01-30T02:38:22.622Z,-4.94
2023-01-30T02:42:23.238Z,-4.97
2023-01-30T02:46:00.951Z,-5.00
2023-01-30T02:49:29.407Z,-5.05
2023-01-30T02:53:08.839Z,-5.15
2023-01-30T02:56:48.346Z,-5.32
2023-01-30T03:00:06.928Z,-5.46
2023-01-30T03:04:11.134Z,-5.54
2023-01-30T03:07:51.495Z,-5.61
2023-01-30T03:11:12.413Z,-5.70
2023-01-30T03:15:02.124Z,-5.74
2023-01-30T03:18:27.633Z,-5.69
2023-01-30T03:21:49.267Z,-5.63
2023-01-30T03:25:30.627Z,-5.55
2023-01-30T03:29:07.610Z,-5.52
2023-01-30T03:32:47.886Z,-5.54
2023-01-30T03:36:20.684Z,-5.59
2023-01-30T03:39:42.344Z,-5.72
2023-01-30T03:43:25.999Z,-5.72
2023-01-30T03:46:54.283Z,-5.70
2023-01-30T03:50:29.697Z,-5.82
2023-01-30T03:54:06.950Z,-5.89
2023-01-30T03:57:44.573Z,-5.92
2023-01-30T04:01:27.708Z,-6.01
2023-01-30T04:04:46.482Z,-6.09
2023-01-30T04:08:23.124Z,-5.96
2023-01-30T04:11:57.703Z,-6.08
2023-01-30T04:15:34.426Z,-6.12
2023-01-30T04:19:04.419Z,-6.13
2023-01-30T04:22:24.847Z,-6.14
2023-01-30T04:25:46.948Z,-6.19
2023-01-30T04:33:06.473Z,-6.31
2023-01-30T04:40:10.287Z,-6.21
2023-01-30T04:43:39.824Z,-6.18
2023-01-30T04:47:19.704Z,-6.18
2023-01-30T04:54:42.700Z,-6.19
2023-01-30T04:58:03.411Z,-6.22
2023-01-30T05:01:42.471Z,-6.28
2023-01-30T05:12:43.184Z,-6.32
2023-01-30T05:16:26.239Z,-6.32
2023-01-30T05:20:06.066Z,-6.27
2023-01-30T05:23:42.914Z,-6.11
2023-01-30T05:27:30.250Z,-6.00
2023-01-30T05:31:13.485Z,-5.88
2023-01-30T05:34:32.541Z,-5.81
2023-01-30T05:37:59.532Z,-5.78
2023-01-30T05:41:33.394Z,-5.71
2023-01-30T05:45:16.769Z,-5.67
2023-01-30T05:48:38.685Z,-5.72
2023-01-30T05:52:17.273Z,-5.76
2023-01-30T05:55:55.991Z,-5.67
2023-01-30T05:59:33.248Z,-5.67
2023-01-30T06:03:07.768Z,-5.69
2023-01-30T06:10:21.459Z,-5.77
2023-01-30T06:14:03.853Z,-5.80
2023-01-30T06:21:15.486Z,-5.84
2023-01-30T06:24:55.537Z,-5.93
2023-01-30T06:28:37.169Z,-5.97
2023-01-30T06:32:26.525Z,-5.90
2023-01-30T06:35:53.789Z,-5.92
2023-01-30T06:46:59.541Z,-5.55
2023-01-30T06:50:43.455Z,-5.40
2023-01-30T07:05:36.875Z,-4.77
2023-01-30T07:09:05.465Z,-4.54
2023-01-30T07:12:37.369Z,-4.28
2023-01-30T07:15:47.244Z,-3.95
2023-01-30T07:18:50.337Z,-3.89
2023-01-30T07:21:55.973Z,-3.62
2023-01-30T07:24:58.537Z,-3.50
2023-01-30T07:28:02.896Z,-3.54
2023-01-30T07:31:05.911Z,-3.55
2023-01-30T07:34:09.320Z,-3.47
2023-01-30T07:37:15.541Z,-3.43
2023-01-30T07:40:20.009Z,-3.20
2023-01-30T07:43:25.594Z,-3.17
2023-01-30T07:46:35.378Z,-2.81
2023-01-30T07:49:38.333Z,-2.60
2023-01-30T07:52:41.127Z,-2.72
2023-01-30T07:55:44.535Z,-2.89
2023-01-30T07:58:48.647Z,-2.93
2023-01-30T08:01:54.442Z,-2.59
2023-01-30T08:04:57.450Z,-2.34
2023-01-30T08:08:02.689Z,-2.00
2023-01-30T08:11:06.692Z,-2.18
2023-01-30T08:14:14.268Z,-2.50
2023-01-30T08:17:20.019Z,-2.38
2023-01-30T08:20:22.850Z,-1.96
2023-01-30T08:23:26.425Z,-1.78
2023-01-30T08:26:31.159Z,-1.57
2023-01-30T08:29:34.158Z,-1.60
2023-01-30T08:32:37.147Z,-1.85
2023-01-30T08:35:46.926Z,-1.78
2023-01-30T08:38:49.644Z,-2.07
2023-01-30T08:41:55.301Z,-1.53
2023-01-30T08:44:58.934Z,-1.44
2023-01-30T08:48:07.994Z,-1.13
2023-01-30T08:51:11.035Z,-1.25
2023-01-30T08:54:14.940Z,-1.21
2023-01-30T08:57:17.954Z,-1.11
2023-01-30T09:00:23.603Z,-0.86
2023-01-30T09:03:26.413Z,-1.03
2023-01-30T09:06:29.492Z,-0.83
2023-01-30T09:09:35.059Z,-1.05
2023-01-30T09:12:38.040Z,-1.03
2023-01-30T09:15:44.348Z,-1.41
2023-01-30T09:18:47.692Z,-1.44
2023-01-30T09:21:53.456Z,-1.43
2023-01-30T09:24:59.200Z,-1.10
2023-01-30T09:28:08.149Z,-1.11
2023-01-30T09:31:12.895Z,-1.00
2023-01-30T09:34:16.125Z,-0.85
2023-01-30T09:37:22.749Z,-0.66
2023-01-30T09:40:29.575Z,-0.94
2023-01-30T09:43:38.924Z,-0.66
2023-01-30T09:46:47.539Z,-0.29
2023-01-30T09:50:06.861Z,-0.36
2023-01-30T09:53:16.970Z,-0.59
2023-01-30T09:56:21.082Z,-0.14
2023-01-30T09:59:31.266Z,-0.39
2023-01-30T10:02:52.300Z,-0.57
2023-01-30T10:05:58.861Z,-0.58
2023-01-30T10:09:08.359Z,-0.72
2023-01-30T10:12:42.614Z,-0.70
2023-01-30T10:16:15.436Z,-0.67
2023-01-30T10:19:50.056Z,-0.55
2023-01-30T10:23:28.771Z,-0.44
2023-01-30T10:26:50.438Z,-0.62
2023-01-30T10:29:57.161Z,0.00
2023-01-30T10:33:18.373Z,0.25
2023-01-30T10:37:00.892Z,0.28
2023-01-30T10:40:12.789Z,0.10
2023-01-30T10:43:39.971Z,0.13
2023-01-30T10:46:51.050Z,-0.10
2023-01-30T10:50:03.054Z,0.15
2023-01-30T10:53:14.565Z,0.29
2023-01-30T10:56:30.300Z,0.48
2023-01-30T10:59:46.255Z,0.39
2023-01-30T11:03:27.967Z,0.60
2023-01-30T11:06:35.014Z,0.68
2023-01-30T11:09:43.430Z,0.74
2023-01-30T11:12:46.917Z,0.98
2023-01-30T11:15:54.236Z,0.98
2023-01-30T11:19:19.600Z,0.53
2023-01-30T11:22:39.276Z,0.62
2023-01-30T11:25:59.300Z,0.68
2023-01-30T11:29:31.915Z,0.81
2023-01-30T11:32:34.929Z,0.67
2023-01-30T11:36:30.007Z,0.69
2023-01-30T11:39:53.773Z,0.70
2023-01-30T11:43:14.264Z,0.75
2023-01-30T11:46:22.489Z,0.92
2023-01-30T11:50:09.677Z,0.92
2023-01-30T11:53:29.133Z,0.93
2023-01-30T11:57:17.341Z,0.91
2023-01-30T12:00:40.562Z,0.78
2023-01-30T12:03:55.759Z,0.69
2023-01-30T12:07:17.914Z,0.67
2023-01-30T12:10:40.466Z,0.63
2023-01-30T12:14:45.889Z,0.56
2023-01-30T12:18:04.434Z,0.43
2023-01-30T12:21:30.780Z,0.40
2023-01-30T12:25:15.714Z,0.39
2023-01-30T12:29:05.714Z,0.42
2023-01-30T12:32:14.333Z,0.54
2023-01-30T12:35:19.366Z,0.54
2023-01-30T12:38:46.299Z,0.58
2023-01-30T12:42:11.164Z,0.63
2023-01-30T12:45:29.782Z,0.93
2023-01-30T12:49:10.887Z,0.91
2023-01-30T12:52:21.448Z,1.04
2023-01-30T12:55:49.214Z,1.21
2023-01-30T12:59:06.397Z,1.30
2023-01-30T13:02:24.358Z,1.33
2023-01-30T13:05:54.219Z,1.24
2023-01-30T13:09:39.723Z,1.44
2023-01-30T13:13:10.945Z,1.68
2023-01-30T13:16:23.222Z,1.54
2023-01-30T13:20:12.790Z,1.75
2023-01-30T13:24:24.590Z,1.76
2023-01-30T13:27:37.634Z,1.69
2023-01-30T13:30:46.576Z,1.77
2023-01-30T13:34:04.483Z,1.80
2023-01-30T13:37:14.301Z,1.79
2023-01-30T13:40:24.541Z,1.74
2023-01-30T13:43:54.408Z,1.54
2023-01-30T13:47:35.403Z,1.73
2023-01-30T13:50:56.140Z,1.25
2023-01-30T13:54:22.502Z,1.36
2023-01-30T13:58:16.110Z,1.23
2023-01-30T14:01:21.037Z,1.47
2023-01-30T14:04:30.904Z,1.56
2023-01-30T14:07:42.259Z,1.33
2023-01-30T14:10:49.310Z,1.34
2023-01-30T14:14:36.714Z,1.42
2023-01-30T14:18:39.242Z,1.37
2023-01-30T14:21:58.030Z,1.12
2023-01-30T14:25:33.839Z,1.10
2023-01-30T14:28:37.153Z,1.01
2023-01-30T14:31:49.478Z,0.99
2023-01-30T14:35:14.182Z,1.08
2023-01-30T14:38:40.763Z,1.01
2023-01-30T14:41:43.494Z,1.01
2023-01-30T14:45:05.656Z,1.03
2023-01-30T14:48:33.773Z,0.91
2023-01-30T14:51:40.715Z,1.08
2023-01-30T14:54:55.140Z,0.88
2023-01-30T14:58:02.731Z,0.83
2023-01-30T15:01:06.323Z,0.84
2023-01-30T15:04:16.937Z,0.74
2023-01-30T15:07:21.872Z,0.75
2023-01-30T15:11:05.645Z,0.69
2023-01-30T15:14:27.879Z,0.57
2023-01-30T15:17:50.589Z,0.60
2023-01-30T15:21:37.710Z,0.54
2023-01-30T15:25:14.964Z,0.59
2023-01-30T15:28:41.565Z,0.52
2023-01-30T15:32:00.252Z,0.55
2023-01-30T15:35:27.523Z,0.51
2023-01-30T15:38:58.592Z,0.53
2023-01-30T15:42:08.478Z,0.48
2023-01-30T15:45:26.993Z,0.49
2023-01-30T15:48:53.307Z,0.46
2023-01-30T15:52:06.139Z,0.50
2023-01-30T15:55:32.423Z,0.46
2023-01-30T15:59:00.842Z,0.48
2023-01-30T16:02:14.640Z,0.50
2023-01-30T16:05:26.470Z,0.50
2023-01-30T16:08:31.439Z,0.48
2023-01-30T16:11:36.093Z,0.32
2023-01-30T16:14:39.498Z,0.26
2023-01-30T16:18:00.161Z,0.27
2023-01-30T16:21:17.806Z,0.18
2023-01-30T16:24:25.247Z,0.32
2023-01-30T16:27:34.981Z,0.31
2023-01-30T16:30:42.703Z,0.28
2023-01-30T16:33:54.758Z,0.33
2023-01-30T16:37:07.937Z,0.19
2023-01-30T16:40:11.197Z,0.14
2023-01-30T16:43:23.205Z,0.26
2023-01-30T16:47:08.207Z,0.13
2023-01-30T16:50:21.342Z,0.04
2023-01-30T16:53:26.732Z,0.06
2023-01-30T16:56:54.955Z,-0.22
2023-01-30T16:59:58.996Z,-0.32
2023-01-30T17:03:20.146Z,-0.33
2023-01-30T17:06:40.245Z,-0.44
2023-01-30T17:09:47.078Z,-0.29
2023-01-30T17:12:50.422Z,-0.49
2023-01-30T17:15:53.794Z,-0.36
2023-01-30T17:18:59.819Z,-0.34
2023-01-30T17:22:19.232Z,-0.48
2023-01-30T17:25:44.522Z,-0.51
2023-01-30T17:29:23.303Z,-0.48
2023-01-30T17:32:35.672Z,-0.32
2023-01-30T17:35:41.826Z,-0.20
2023-01-30T17:38:52.740Z,-0.03
2023-01-30T17:41:57.011Z,-0.23
2023-01-30T17:44:59.983Z,-0.25
2023-01-30T17:48:03.678Z,-0.29
2023-01-30T17:51:06.822Z,-0.18
2023-01-30T17:54:12.521Z,-0.15
2023-01-30T17:57:16.248Z,-0.15
2023-01-30T18:00:21.473Z,-0.03
2023-01-30T18:03:26.214Z,-0.02
2023-01-30T18:06:33.034Z,-0.09
2023-01-30T18:09:37.313Z,0.00
2023-01-30T18:12:40.966Z,-0.05
2023-01-30T18:15:46.479Z,-0.04
2023-01-30T18:19:05.588Z,0.05
2023-01-30T18:22:09.920Z,-0.08
2023-01-30T18:25:15.606Z,-0.16
2023-01-30T18:28:21.698Z,-0.15
2023-01-30T18:31:31.868Z,-0.13
2023-01-30T18:34:40.230Z,-0.07
2023-01-30T18:37:44.823Z,-0.13
2023-01-30T18:40:51.960Z,-0.04
2023-01-30T18:44:01.000Z,0.29
2023-01-30T18:47:05.262Z,0.59
2023-01-30T18:50:12.330Z,0.73
2023-01-30T18:53:36.685Z,0.93
2023-01-30T18:56:39.780Z,0.99
2023-01-30T18:59:44.299Z,1.03
2023-01-30T19:02:55.024Z,1.09
2023-01-30T19:06:01.818Z,1.16
2023-01-30T19:09:07.966Z,1.17
2023-01-30T19:12:51.806Z,1.20
2023-01-30T19:16:01.445Z,1.27
2023-01-30T19:19:08.411Z,1.23
2023-01-30T19:22:16.672Z,1.22
2023-01-30T19:25:22.497Z,1.28
2023-01-30T19:28:30.743Z,1.30
2023-01-30T19:31:36.359Z,1.31
2023-01-30T19:34:43.775Z,1.31
2023-01-30T19:38:27.310Z,1.41
2023-01-30T19:41:35.952Z,1.36
2023-01-30T19:44:41.033Z,1.33
2023-01-30T19:47:53.785Z,1.33
2023-01-30T19:51:01.387Z,1.34
2023-01-30T19:54:24.160Z,1.45
2023-01-30T19:57:30.401Z,1.39
2023-01-30T20:00:35.460Z,1.37
2023-01-30T20:04:00.027Z,1.39
2023-01-30T20:07:24.768Z,1.35
2023-01-30T20:10:28.936Z,1.36
2023-01-30T20:13:38.901Z,1.38
2023-01-30T20:16:44.073Z,1.41
2023-01-30T20:20:08.001Z,1.41
2023-01-30T20:23:12.118Z,1.45
2023-01-30T20:26:20.196Z,1.44
2023-01-30T20:29:26.103Z,1.45
2023-01-30T20:32:36.194Z,1.51
2023-01-30T20:35:42.036Z,1.57
2023-01-30T20:38:46.638Z,1.57
2023-01-30T20:41:50.274Z,1.56
2023-01-30T20:44:57.909Z,1.50
2023-01-30T20:48:01.513Z,1.43
2023-01-30T20:51:12.043Z,1.30
2023-01-30T20:54:38.343Z,1.22
2023-01-30T20:58:14.642Z,1.12
2023-01-30T21:01:24.142Z,0.99
2023-01-30T21:04:28.902Z,0.90
2023-01-30T21:07:34.297Z,0.75
2023-01-30T21:10:46.821Z,0.57
2023-01-30T21:13:55.052Z,0.43
2023-01-30T21:17:20.534Z,0.41
2023-01-30T21:20:25.021Z,0.68
2023-01-30T21:23:38.253Z,0.64
2023-01-30T21:26:47.893Z,0.67
2023-01-30T21:29:56.958Z,0.67
2023-01-30T21:33:00.631Z,0.73
2023-01-30T21:36:07.553Z,0.81
2023-01-30T21:39:33.527Z,0.79
2023-01-30T21:42:55.329Z,0.98
2023-01-30T21:45:59.327Z,1.24
2023-01-30T21:49:03.999Z,1.23
2023-01-30T21:52:07.570Z,1.20
2023-01-30T21:55:12.053Z,1.13
2023-01-30T21:58:20.090Z,1.10
2023-01-30T22:01:25.763Z,1.09
2023-01-30T22:04:34.492Z,1.07
2023-01-30T22:07:39.949Z,0.97
2023-01-30T22:10:47.880Z,0.97
2023-01-30T22:13:51.919Z,0.90
2023-01-30T22:16:57.285Z,1.09
2023-01-30T22:20:20.152Z,0.95
2023-01-30T22:23:33.130Z,0.78
2023-01-30T22:26:36.680Z,1.02
2023-01-30T22:29:45.843Z,0.82
2023-01-30T22:32:53.162Z,0.96
2023-01-30T22:35:57.226Z,0.91
2023-01-30T22:39:01.388Z,1.11
2023-01-30T22:42:07.572Z,0.81
2023-01-30T22:45:30.051Z,0.67
2023-01-30T22:48:36.699Z,0.56
2023-01-30T22:51:41.373Z,0.41
2023-01-30T22:54:48.965Z,0.32
2023-01-30T22:57:51.552Z,0.31
2023-01-30T23:00:55.747Z,0.17
2023-01-30T23:04:12.807Z,0.16
2023-01-30T23:07:18.226Z,0.10
2023-01-30T23:10:20.872Z,-0.02
2023-01-30T23:13:32.824Z,-0.05
2023-01-30T23:16:38.078Z,-0.10
2023-01-30T23:19:41.562Z,-0.05
2023-01-30T23:22:50.817Z,0.31
2023-01-30T23:25:59.027Z,0.29
2023-01-30T23:29:07.052Z,0.33
2023-01-30T23:32:14.319Z,0.27
2023-01-30T23:35:23.779Z,0.36
2023-01-30T23:38:54.312Z,0.32
2023-01-30T23:42:03.388Z,0.52
2023-01-30T23:45:08.402Z,0.88
2023-01-30T23:48:11.550Z,1.38
2023-01-30T23:51:17.637Z,1.65
2023-01-30T23:54:25.236Z,1.70
2023-01-30T23:57:28.995Z,1.65
